createdAt,value
2022-12-17T00:00:42.494Z,39.10
2022-12-17T00:03:29.397Z,40.23
2022-12-17T00:06:15.443Z,37.03
2022-12-17T00:09:01.696Z,38.90
2022-12-17T00:11:47.530Z,39.33
2022-12-17T00:14:34.916Z,42.63
2022-12-17T00:17:20.957Z,39.63
2022-12-17T00:20:07.063Z,40.37
2022-12-17T00:22:53.324Z,38.70
2022-12-17T00:25:39.198Z,41.67
2022-12-17T00:28:28.779Z,38.87
2022-12-17T00:31:16.180Z,40.97
2022-12-17T00:34:02.237Z,42.77
2022-12-17T00:36:48.350Z,41.70
2022-12-17T00:39:34.300Z,40.57
2022-12-17T00:42:20.210Z,40.93
2022-12-17T00:45:14.711Z,40.03
2022-12-17T00:48:01.689Z,42.50
2022-12-17T00:50:47.896Z,43.10
2022-12-17T00:53:34.279Z,42.73
2022-12-17T00:56:16.739Z,43.77
2022-12-17T00:59:02.820Z,43.90
2022-12-17T01:01:48.899Z,42.87
2022-12-17T01:04:36.445Z,42.80
2022-12-17T01:07:22.577Z,44.10
2022-12-17T01:10:04.849Z,38.67
2022-12-17T01:12:50.802Z,41.53
2022-12-17T01:15:38.179Z,41.57
2022-12-17T01:18:24.379Z,41.53
2022-12-17T01:21:16.783Z,40.87
2022-12-17T01:24:02.915Z,43.20
2022-12-17T01:26:48.891Z,38.93
2022-12-17T01:29:35.230Z,40.10
2022-12-17T01:32:21.408Z,38.80
2022-12-17T01:35:07.611Z,39.93
2022-12-17T01:38:06.612Z,39.07
2022-12-17T01:40:52.659Z,38.23
2022-12-17T01:43:50.818Z,36.40
2022-12-17T01:46:37.251Z,35.43
2022-12-17T01:49:23.296Z,34.30
2022-12-17T01:52:11.285Z,35.57
2022-12-17T01:54:58.857Z,32.57
2022-12-17T01:57:45.339Z,32.70
2022-12-17T02:00:33.143Z,30.77
2022-12-17T02:03:19.248Z,30.83
2022-12-17T02:06:12.962Z,31.20
2022-12-17T02:09:03.561Z,32.23
2022-12-17T02:11:56.847Z,31.93
2022-12-17T02:14:47.286Z,30.70
2022-12-17T02:17:37.091Z,30.23
2022-12-17T02:20:27.909Z,30.93
2022-12-17T02:23:20.900Z,33.07
2022-12-17T02:26:09.271Z,32.73
2022-12-17T02:28:57.545Z,32.40
2022-12-17T02:31:43.989Z,30.13
2022-12-17T02:34:30.115Z,30.80
2022-12-17T02:37:16.358Z,29.47
2022-12-17T02:40:13.917Z,30.03
2022-12-17T02:43:01.136Z,31.43
2022-12-17T02:45:48.895Z,31.77
2022-12-17T02:48:35.414Z,31.23
2022-12-17T02:51:21.399Z,30.43
2022-12-17T02:54:10.090Z,31.90
2022-12-17T02:56:56.027Z,31.90
2022-12-17T02:59:42.260Z,32.47
2022-12-17T03:02:29.717Z,31.27
2022-12-17T03:05:43.522Z,30.80
2022-12-17T03:08:21.747Z,30.13
2022-12-17T03:11:07.947Z,30.97
2022-12-17T03:13:54.086Z,29.47
2022-12-17T03:16:40.152Z,30.80
2022-12-17T03:19:28.903Z,31.90
2022-12-17T03:22:14.995Z,30.83
2022-12-17T03:25:01.196Z,29.13
2022-12-17T03:27:47.161Z,28.20
2022-12-17T03:30:45.794Z,30.70
2022-12-17T03:33:30.816Z,29.63
2022-12-17T03:36:17.923Z,29.20
2022-12-17T03:39:09.171Z,29.13
2022-12-17T03:41:55.243Z,28.90
2022-12-17T03:44:41.548Z,29.37
2022-12-17T03:47:27.681Z,29.90
2022-12-17T03:50:13.561Z,28.93
2022-12-17T03:53:01.146Z,29.27
2022-12-17T03:55:46.933Z,30.70
2022-12-17T03:58:32.935Z,28.90
2022-12-17T04:01:19.177Z,29.17
2022-12-17T04:04:04.980Z,28.50
2022-12-17T04:06:50.974Z,29.67
2022-12-17T04:09:38.236Z,29.97
2022-12-17T04:12:24.120Z,28.63
2022-12-17T04:15:10.230Z,27.30
2022-12-17T04:17:56.389Z,29.33
2022-12-17T04:20:56.859Z,28.10
2022-12-17T04:23:42.892Z,28.10
2022-12-17T04:26:30.094Z,27.43
2022-12-17T04:29:15.389Z,27.90
2022-12-17T04:32:01.500Z,27.13
2022-12-17T04:34:47.591Z,28.20
2022-12-17T04:37:33.893Z,27.93
2022-12-17T04:40:19.861Z,27.20
2022-12-17T04:43:07.446Z,26.23
2022-12-17T04:45:53.661Z,25.47
2022-12-17T04:48:43.075Z,25.87
2022-12-17T04:51:28.943Z,26.37
2022-12-17T04:54:15.052Z,26.47
2022-12-17T04:57:00.977Z,25.13
2022-12-17T04:59:48.152Z,26.00
2022-12-17T05:02:38.226Z,25.00
2022-12-17T05:05:27.356Z,25.53
2022-12-17T05:08:13.373Z,25.90
2022-12-17T05:10:59.252Z,26.37
2022-12-17T05:13:45.416Z,26.67
2022-12-17T05:16:33.195Z,26.13
2022-12-17T05:19:19.143Z,27.57
2022-12-17T05:22:05.132Z,25.23
2022-12-17T05:24:51.149Z,24.80
2022-12-17T05:27:37.141Z,25.60
2022-12-17T05:30:23.784Z,28.00
2022-12-17T05:33:18.376Z,25.23
2022-12-17T05:36:04.378Z,26.17
2022-12-17T05:38:50.629Z,26.27
2022-12-17T05:41:36.889Z,27.23
2022-12-17T05:44:22.866Z,26.27
2022-12-17T05:47:08.982Z,24.43
2022-12-17T05:49:56.349Z,24.10
2022-12-17T05:52:42.657Z,26.47
2022-12-17T05:55:28.737Z,26.60
2022-12-17T05:58:20.861Z,26.13
2022-12-17T06:01:07.026Z,25.87
2022-12-17T06:03:53.257Z,25.47
2022-12-17T06:06:40.779Z,26.60
2022-12-17T06:09:26.850Z,26.07
2022-12-17T06:12:12.929Z,25.83
2022-12-17T06:14:59.057Z,24.47
2022-12-17T06:17:45.060Z,25.00
2022-12-17T06:20:31.098Z,25.23
2022-12-17T06:23:21.211Z,25.93
2022-12-17T06:26:07.404Z,25.20
2022-12-17T06:28:53.504Z,25.93
2022-12-17T06:31:39.719Z,25.40
2022-12-17T06:34:25.890Z,26.97
2022-12-17T06:37:11.154Z,25.70
2022-12-17T06:39:58.292Z,26.47
2022-12-17T06:42:44.426Z,25.87
2022-12-17T06:45:30.577Z,26.83
2022-12-17T06:48:20.547Z,28.57
2022-12-17T06:51:06.792Z,27.40
2022-12-17T06:53:52.630Z,27.63
2022-12-17T06:56:39.907Z,25.67
2022-12-17T06:59:26.098Z,26.50
2022-12-17T07:02:12.053Z,26.20
2022-12-17T07:04:58.066Z,25.97
2022-12-17T07:07:44.174Z,25.60
2022-12-17T07:10:30.221Z,23.90
2022-12-17T07:13:22.922Z,25.63
2022-12-17T07:16:09.249Z,26.03
2022-12-17T07:18:56.140Z,26.00
2022-12-17T07:21:44.216Z,23.80
2022-12-17T07:24:30.270Z,23.13
2022-12-17T07:27:16.003Z,22.67
2022-12-17T07:30:03.409Z,24.40
2022-12-17T07:32:49.404Z,22.57
2022-12-17T07:35:35.447Z,21.63
2022-12-17T07:38:22.432Z,23.00
2022-12-17T07:41:08.320Z,22.63
2022-12-17T07:43:54.229Z,22.70
2022-12-17T07:46:41.497Z,22.00
2022-12-17T07:49:27.532Z,21.73
2022-12-17T07:52:13.672Z,21.53
2022-12-17T07:54:59.878Z,22.77
2022-12-17T07:57:46.037Z,23.00
2022-12-17T08:00:32.649Z,21.33
2022-12-17T08:03:20.632Z,21.50
2022-12-17T08:06:06.476Z,21.83
2022-12-17T08:08:52.544Z,23.57
2022-12-17T08:11:38.780Z,21.57
2022-12-17T08:14:25.036Z,22.17
2022-12-17T08:17:11.193Z,22.97
2022-12-17T08:19:58.525Z,21.00
2022-12-17T08:22:44.314Z,22.73
2022-12-17T08:25:30.457Z,24.73
2022-12-17T08:28:50.199Z,23.70
2022-12-17T08:31:25.407Z,23.00
2022-12-17T08:34:11.588Z,22.23
2022-12-17T08:36:58.731Z,20.97
2022-12-17T08:39:44.821Z,23.30
2022-12-17T08:42:30.773Z,21.60
2022-12-17T08:45:16.963Z,18.83
2022-12-17T08:48:04.321Z,21.10
2022-12-17T08:50:50.403Z,21.27
2022-12-17T08:53:37.969Z,21.60
2022-12-17T08:56:24.696Z,19.93
2022-12-17T08:59:10.467Z,19.50
2022-12-17T09:01:56.696Z,17.80
2022-12-17T09:04:42.707Z,19.30
2022-12-17T09:07:42.989Z,20.80
2022-12-17T09:10:30.167Z,20.00
2022-12-17T09:13:20.015Z,19.83
2022-12-17T09:16:10.795Z,19.13
2022-12-17T09:18:56.604Z,17.47
2022-12-17T09:21:43.101Z,18.30
2022-12-17T09:24:29.439Z,18.10
2022-12-17T09:27:16.554Z,17.83
2022-12-17T09:30:02.492Z,16.20
2022-12-17T09:32:49.875Z,16.97
2022-12-17T09:35:35.768Z,17.40
2022-12-17T09:38:27.220Z,18.93
2022-12-17T09:41:13.463Z,17.00
2022-12-17T09:44:03.869Z,17.70
2022-12-17T09:46:52.564Z,19.03
2022-12-17T09:49:43.912Z,19.03
2022-12-17T09:52:37.002Z,19.73
2022-12-17T09:55:23.572Z,20.53
2022-12-17T09:58:09.646Z,18.17
2022-12-17T10:01:01.014Z,19.37
2022-12-17T10:03:48.233Z,18.57
2022-12-17T10:06:36.993Z,19.53
2022-12-17T10:09:29.748Z,17.97
2022-12-17T10:12:15.493Z,18.43
2022-12-17T10:15:01.718Z,17.90
2022-12-17T10:17:51.167Z,15.83
2022-12-17T10:20:40.622Z,16.30
2022-12-17T10:23:41.431Z,16.93
2022-12-17T10:26:27.469Z,15.10
2022-12-17T10:29:20.918Z,15.17
2022-12-17T10:32:07.249Z,14.30
2022-12-17T10:35:01.861Z,16.20
2022-12-17T10:37:51.306Z,16.10
2022-12-17T10:40:41.449Z,17.77
2022-12-17T10:43:41.725Z,17.80
2022-12-17T10:46:27.649Z,18.40
2022-12-17T10:49:23.146Z,17.70
2022-12-17T10:52:10.557Z,16.70
2022-12-17T10:54:56.699Z,16.57
2022-12-17T10:57:45.240Z,17.80
2022-12-17T11:00:35.248Z,16.30
2022-12-17T11:03:21.799Z,18.73
2022-12-17T11:06:08.739Z,18.37
2022-12-17T11:08:56.671Z,17.30
2022-12-17T11:11:42.955Z,17.93
2022-12-17T11:14:44.974Z,17.00
2022-12-17T11:17:34.524Z,17.77
2022-12-17T11:20:21.713Z,18.07
2022-12-17T11:23:09.419Z,18.83
2022-12-17T11:26:00.181Z,18.17
2022-12-17T11:28:47.151Z,18.77
2022-12-17T11:31:50.258Z,17.60
2022-12-17T11:34:40.708Z,19.57
2022-12-17T11:37:33.356Z,17.43
2022-12-17T11:40:22.863Z,18.67
2022-12-17T11:43:11.535Z,25.57
2022-12-17T11:46:05.110Z,24.70
2022-12-17T11:49:02.278Z,21.20
2022-12-17T11:51:50.748Z,20.33
2022-12-17T11:54:40.523Z,19.00
2022-12-17T11:57:31.373Z,18.57
2022-12-17T12:00:21.355Z,20.20
2022-12-17T12:03:13.079Z,19.47
2022-12-17T12:06:04.563Z,19.10
2022-12-17T12:08:52.628Z,19.77
2022-12-17T12:11:43.893Z,20.10
2022-12-17T12:14:34.087Z,18.70
2022-12-17T12:17:24.747Z,18.93
2022-12-17T12:20:15.142Z,19.33
2022-12-17T12:23:05.036Z,20.17
2022-12-17T12:25:54.014Z,23.00
2022-12-17T12:28:48.160Z,22.43
2022-12-17T12:31:46.238Z,19.20
2022-12-17T12:34:36.888Z,21.33
2022-12-17T12:37:24.477Z,21.70
2022-12-17T12:40:13.412Z,20.83
2022-12-17T12:43:02.358Z,19.43
2022-12-17T12:45:57.448Z,20.20
2022-12-17T12:48:51.383Z,20.47
2022-12-17T12:51:41.098Z,19.57
2022-12-17T12:54:45.666Z,19.97
2022-12-17T12:57:47.798Z,19.50
2022-12-17T13:00:44.502Z,19.80
2022-12-17T13:03:39.797Z,22.23
2022-12-17T13:06:08.599Z,20.03
2022-12-17T13:08:38.865Z,21.00
2022-12-17T13:11:22.315Z,20.47
2022-12-17T13:13:56.953Z,22.70
2022-12-17T13:16:30.618Z,21.97
2022-12-17T13:19:03.597Z,21.07
2022-12-17T13:21:32.618Z,21.40
2022-12-17T13:24:11.524Z,20.37
2022-12-17T13:26:45.216Z,21.40
2022-12-17T13:29:21.559Z,20.07
2022-12-17T13:31:54.781Z,22.00
2022-12-17T13:34:28.022Z,20.00
2022-12-17T13:36:59.800Z,22.30
2022-12-17T13:39:34.527Z,22.00
2022-12-17T13:42:03.027Z,20.40
2022-12-17T13:44:35.897Z,21.70
2022-12-17T13:47:04.347Z,20.50
2022-12-17T13:49:33.260Z,22.07
2022-12-17T13:52:07.998Z,23.30
2022-12-17T13:54:41.069Z,21.50
2022-12-17T13:57:10.223Z,22.57
2022-12-17T13:59:38.620Z,22.03
2022-12-17T14:02:07.300Z,20.43
2022-12-17T14:04:35.767Z,20.37
2022-12-17T14:07:06.384Z,21.37
2022-12-17T14:09:36.761Z,22.40
2022-12-17T14:12:25.039Z,21.27
2022-12-17T14:14:57.003Z,20.97
2022-12-17T14:17:26.589Z,22.20
2022-12-17T14:19:59.227Z,21.87
2022-12-17T14:22:31.569Z,21.17
2022-12-17T14:25:00.145Z,21.00
2022-12-17T14:27:34.300Z,21.90
2022-12-17T14:30:02.728Z,23.17
2022-12-17T14:32:33.390Z,22.10
2022-12-17T14:35:01.801Z,21.87
2022-12-17T14:37:30.409Z,21.47
2022-12-17T14:40:02.214Z,23.10
2022-12-17T14:42:32.609Z,24.43
2022-12-17T14:45:02.566Z,22.67
2022-12-17T14:47:31.770Z,22.23
2022-12-17T14:50:02.037Z,23.70
2022-12-17T14:52:41.495Z,23.37
2022-12-17T14:55:26.349Z,21.67
2022-12-17T14:58:08.011Z,22.17
2022-12-17T15:00:36.854Z,22.10
2022-12-17T15:03:05.578Z,23.17
2022-12-17T15:05:34.184Z,21.20
2022-12-17T15:08:02.609Z,21.73
2022-12-17T15:10:31.099Z,20.00
2022-12-17T15:13:01.073Z,20.17
2022-12-17T15:15:29.471Z,20.93
2022-12-17T15:17:57.859Z,19.87
2022-12-17T15:20:26.251Z,21.13
2022-12-17T15:22:54.665Z,21.27
2022-12-17T15:25:23.042Z,20.33
2022-12-17T15:27:51.484Z,19.23
2022-12-17T15:30:21.326Z,19.97
2022-12-17T15:32:49.691Z,19.43
2022-12-17T15:35:18.080Z,19.13
2022-12-17T15:37:46.467Z,21.80
2022-12-17T15:40:14.862Z,20.77
2022-12-17T15:43:06.032Z,20.67
2022-12-17T15:45:36.150Z,20.80
2022-12-17T15:48:04.502Z,20.93
2022-12-17T15:50:32.895Z,20.77
2022-12-17T15:53:01.373Z,20.60
2022-12-17T15:55:30.047Z,21.10
2022-12-17T15:57:58.421Z,21.80
2022-12-17T16:00:26.848Z,21.93
2022-12-17T16:02:56.791Z,21.73
2022-12-17T16:05:25.555Z,20.67
2022-12-17T16:07:53.987Z,22.67
2022-12-17T16:10:22.379Z,21.97
2022-12-17T16:12:50.756Z,21.20
2022-12-17T16:15:19.107Z,21.43
2022-12-17T16:17:47.599Z,22.73
2022-12-17T16:20:17.493Z,21.87
2022-12-17T16:22:46.214Z,21.50
2022-12-17T16:25:14.610Z,21.43
2022-12-17T16:27:43.019Z,24.60
2022-12-17T16:30:12.224Z,23.17
2022-12-17T16:32:40.635Z,21.93
2022-12-17T16:35:09.213Z,22.53
2022-12-17T16:37:39.079Z,21.63
2022-12-17T16:40:08.032Z,21.73
2022-12-17T16:42:36.418Z,21.97
2022-12-17T16:45:04.991Z,21.37
2022-12-17T16:47:33.383Z,20.63
2022-12-17T16:50:01.758Z,21.23
2022-12-17T16:52:30.145Z,21.00
2022-12-17T16:54:59.910Z,21.43
2022-12-17T16:57:28.307Z,21.13
2022-12-17T16:59:56.800Z,21.73
2022-12-17T17:02:25.706Z,21.10
2022-12-17T17:04:54.195Z,21.10
2022-12-17T17:07:22.613Z,22.00
2022-12-17T17:09:51.001Z,20.93
2022-12-17T17:12:20.739Z,22.40
2022-12-17T17:14:49.096Z,20.87
2022-12-17T17:17:17.474Z,22.27
2022-12-17T17:19:45.885Z,21.40
2022-12-17T17:22:14.316Z,19.93
2022-12-17T17:24:42.708Z,20.67
2022-12-17T17:27:11.137Z,19.57
2022-12-17T17:29:40.884Z,18.80
2022-12-17T17:32:10.936Z,20.13
2022-12-17T17:34:40.356Z,19.83
2022-12-17T17:37:08.814Z,21.97
2022-12-17T17:39:37.224Z,22.77
2022-12-17T17:42:05.658Z,21.87
2022-12-17T17:44:34.060Z,20.53
2022-12-17T17:47:03.881Z,20.80
2022-12-17T17:49:32.367Z,20.17
2022-12-17T17:52:09.353Z,21.53
2022-12-17T17:54:39.433Z,20.93
2022-12-17T17:57:07.960Z,22.53
2022-12-17T17:59:36.415Z,22.30
2022-12-17T18:02:06.237Z,22.50
2022-12-17T18:04:34.774Z,21.37
2022-12-17T18:09:51.672Z,20.23
2022-12-17T18:12:37.748Z,22.30
2022-12-17T18:15:15.794Z,21.23
2022-12-17T18:17:47.795Z,21.17
2022-12-17T18:20:16.375Z,21.37
2022-12-17T18:22:46.273Z,22.43
2022-12-17T18:25:15.351Z,23.07
2022-12-17T18:27:43.747Z,25.57
2022-12-17T18:30:12.592Z,22.43
2022-12-17T18:32:41.006Z,22.73
2022-12-17T18:35:11.567Z,23.30
2022-12-17T18:37:40.243Z,21.57
2022-12-17T18:40:09.498Z,22.93
2022-12-17T18:42:55.538Z,21.47
2022-12-17T18:45:24.114Z,22.00
2022-12-17T18:47:52.866Z,20.60
2022-12-17T18:50:22.837Z,20.27
2022-12-17T18:52:51.546Z,21.53
2022-12-17T18:55:20.276Z,19.80
2022-12-17T18:57:49.026Z,20.23
2022-12-17T19:00:17.780Z,22.60
2022-12-17T19:02:46.473Z,21.67
2022-12-17T19:05:15.134Z,22.70
2022-12-17T19:07:45.244Z,21.30
2022-12-17T19:10:13.854Z,21.10
2022-12-17T19:12:42.722Z,20.23
2022-12-17T19:15:11.643Z,20.43
2022-12-17T19:17:40.020Z,19.37
2022-12-17T19:20:09.091Z,21.30
2022-12-17T19:22:37.711Z,19.77
2022-12-17T19:25:07.992Z,19.70
2022-12-17T19:27:36.576Z,17.70
2022-12-17T19:30:05.359Z,19.03
2022-12-17T19:32:33.841Z,17.97
2022-12-17T19:35:02.164Z,17.40
2022-12-17T19:37:30.542Z,16.97
2022-12-17T19:39:58.890Z,16.97
2022-12-17T19:42:36.749Z,16.63
2022-12-17T19:45:05.662Z,17.27
2022-12-17T19:47:34.024Z,16.67
2022-12-17T19:50:02.387Z,17.53
2022-12-17T19:52:30.788Z,17.13
2022-12-17T19:54:59.175Z,16.60
2022-12-17T19:57:29.016Z,18.17
2022-12-17T19:59:57.393Z,16.67
2022-12-17T20:02:30.980Z,16.33
2022-12-17T20:05:01.695Z,16.73
2022-12-17T20:07:30.201Z,16.10
2022-12-17T20:09:58.819Z,17.53
2022-12-17T20:12:27.314Z,16.40
2022-12-17T20:14:57.259Z,17.17
2022-12-17T20:17:26.478Z,16.67
2022-12-17T20:19:57.979Z,14.90
2022-12-17T20:22:27.179Z,16.70
2022-12-17T20:24:56.075Z,15.83
2022-12-17T20:27:24.653Z,16.27
2022-12-17T20:29:53.282Z,15.87
2022-12-17T20:32:23.547Z,17.03
2022-12-17T20:34:52.488Z,17.77
2022-12-17T20:37:21.176Z,17.87
2022-12-17T20:39:49.530Z,17.40
2022-12-17T20:42:19.310Z,18.77
2022-12-17T20:44:53.237Z,18.87
2022-12-17T20:47:23.368Z,18.00
2022-12-17T20:49:51.725Z,18.60
2022-12-17T20:52:20.115Z,17.93
2022-12-17T20:54:49.484Z,18.97
2022-12-17T20:57:18.104Z,19.13
2022-12-17T20:59:46.525Z,19.50
2022-12-17T21:02:15.642Z,18.23
2022-12-17T21:04:45.541Z,17.90
2022-12-17T21:07:13.922Z,16.70
2022-12-17T21:09:42.354Z,15.50
2022-12-17T21:12:13.741Z,15.13
2022-12-17T21:14:42.123Z,15.80
2022-12-17T21:17:10.545Z,16.97
2022-12-17T21:19:39.092Z,17.17
2022-12-17T21:22:10.349Z,19.87
2022-12-17T21:24:39.954Z,24.40
2022-12-17T21:27:14.554Z,16.87
2022-12-17T21:29:43.625Z,15.30
2022-12-17T21:32:12.220Z,15.73
2022-12-17T21:34:41.196Z,15.40
2022-12-17T21:37:11.523Z,14.40
2022-12-17T21:39:40.160Z,14.80
2022-12-17T21:42:26.024Z,15.40
2022-12-17T21:44:54.404Z,13.97
2022-12-17T21:47:23.875Z,14.10
2022-12-17T21:49:52.272Z,13.87
2022-12-17T21:52:22.032Z,14.10
2022-12-17T21:54:50.392Z,14.63
2022-12-17T21:57:19.108Z,12.63
2022-12-17T21:59:47.756Z,13.63
2022-12-17T22:02:17.282Z,13.97
2022-12-17T22:04:45.948Z,13.47
2022-12-17T22:07:21.245Z,13.13
2022-12-17T22:10:20.361Z,13.13
2022-12-17T22:13:00.495Z,13.20
2022-12-17T22:15:32.272Z,12.93
2022-12-17T22:18:05.166Z,12.60
2022-12-17T22:20:33.771Z,12.87
2022-12-17T22:23:02.549Z,12.50
2022-12-17T22:25:32.483Z,12.73
2022-12-17T22:28:00.858Z,12.00
2022-12-17T22:30:46.827Z,11.73
2022-12-17T22:33:54.031Z,13.13
2022-12-17T22:38:46.880Z,11.60
2022-12-17T22:41:36.924Z,11.33
2022-12-17T22:44:48.900Z,11.33
2022-12-17T22:44:53.354Z,11.97
2022-12-17T22:47:23.081Z,11.00
2022-12-17T22:49:51.613Z,11.60
2022-12-17T22:52:20.690Z,11.83
2022-12-17T22:54:49.312Z,11.73
2022-12-17T22:57:36.558Z,10.53
2022-12-17T23:00:08.869Z,11.90
2022-12-17T23:02:38.415Z,12.97
2022-12-17T23:05:07.096Z,10.97
2022-12-17T23:07:35.496Z,11.27
2022-12-17T23:10:03.851Z,10.80
2022-12-17T23:12:52.381Z,10.97
2022-12-17T23:15:21.683Z,12.30
2022-12-17T23:17:50.069Z,11.23
2022-12-17T23:20:18.681Z,11.83
2022-12-17T23:22:47.302Z,11.47
2022-12-17T23:25:15.999Z,12.97
2022-12-17T23:27:46.080Z,11.73
2022-12-17T23:30:15.733Z,12.50
2022-12-17T23:32:44.717Z,12.43
2022-12-17T23:35:13.818Z,12.40
2022-12-17T23:37:42.711Z,13.27
2022-12-17T23:40:12.125Z,13.73
2022-12-17T23:42:40.981Z,12.53
2022-12-17T23:45:12.060Z,12.77
2022-12-17T23:47:41.123Z,13.47
2022-12-17T23:50:10.658Z,12.90
2022-12-17T23:52:39.529Z,11.30
2022-12-17T23:55:08.542Z,11.50
2022-12-17T23:57:36.921Z,11.40
